sensor_id;sensor_type;location;lat;lon;timestamp;temperature;humidity
12276;DHT22;6200;48.144;11.424;2023-05-19T00:01:06;10.70;99.90
12276;DHT22;6200;48.144;11.424;2023-05-19T00:03:33;10.70;99.90
12276;DHT22;6200;48.144;11.424;2023-05-19T00:06:02;10.70;99.90
12276;DHT22;6200;48.144;11.424;2023-05-19T00:08:33;10.60;99.90
12276;DHT22;6200;48.144;11.424;2023-05-19T00:10:59;10.60;99.90
12276;DHT22;6200;48.144;11.424;2023-05-19T00:13:26;10.60;99.90
12276;DHT22;6200;48.144;11.424;2023-05-19T00:15:52;10.60;99.90
12276;DHT22;6200;48.144;11.424;2023-05-19T00:18:18;10.70;99.90
12276;DHT22;6200;48.144;11.424;2023-05-19T00:20:44;10.60;99.90
12276;DHT22;6200;48.144;11.424;2023-05-19T00:23:10;10.60;99.90
12276;DHT22;6200;48.144;11.424;2023-05-19T00:25:36;10.50;99.90
12276;DHT22;6200;48.144;11.424;2023-05-19T00:28:02;10.60;99.90
12276;DHT22;6200;48.144;11.424;2023-05-19T00:30:28;10.60;99.90
12276;DHT22;6200;48.144;11.424;2023-05-19T00:32:54;10.50;99.90
12276;DHT22;6200;48.144;11.424;2023-05-19T00:35:20;10.60;99.90
12276;DHT22;6200;48.144;11.424;2023-05-19T00:37:46;10.50;99.90
12276;DHT22;6200;48.144;11.424;2023-05-19T00:40:12;10.50;99.90
12276;DHT22;6200;48.144;11.424;2023-05-19T00:42:37;10.50;99.90
12276;DHT22;6200;48.144;11.424;2023-05-19T00:45:04;10.50;99.90
12276;DHT22;6200;48.144;11.424;2023-05-19T00:47:30;10.50;99.90
12276;DHT22;6200;48.144;11.424;2023-05-19T00:49:55;10.50;99.90
12276;DHT22;6200;48.144;11.424;2023-05-19T00:52:21;10.50;99.90
12276;DHT22;6200;48.144;11.424;2023-05-19T00:54:48;10.50;99.90
12276;DHT22;6200;48.144;11.424;2023-05-19T00:57:15;10.50;99.90
12276;DHT22;6200;48.144;11.424;2023-05-19T00:59:41;10.50;99.90
12276;DHT22;6200;48.144;11.424;2023-05-19T01:02:06;10.40;99.90
12276;DHT22;6200;48.144;11.424;2023-05-19T01:04:32;10.50;99.90
12276;DHT22;6200;48.144;11.424;2023-05-19T01:07:00;10.50;99.90
12276;DHT22;6200;48.144;11.424;2023-05-19T01:09:26;10.40;99.90
12276;DHT22;6200;48.144;11.424;2023-05-19T01:11:51;10.50;99.90
12276;DHT22;6200;48.144;11.424;2023-05-19T01:14:18;10.40;99.90
12276;DHT22;6200;48.144;11.424;2023-05-19T01:17:03;10.40;99.90
12276;DHT22;6200;48.144;11.424;2023-05-19T01:19:39;10.40;99.90
12276;DHT22;6200;48.144;11.424;2023-05-19T01:30:45;10.40;99.90
12276;DHT22;6200;48.144;11.424;2023-05-19T01:33:13;10.40;99.90
12276;DHT22;6200;48.144;11.424;2023-05-19T01:35:40;10.40;99.90
12276;DHT22;6200;48.144;11.424;2023-05-19T01:38:08;10.40;99.90
12276;DHT22;6200;48.144;11.424;2023-05-19T01:40:35;10.40;99.90
12276;DHT22;6200;48.144;11.424;2023-05-19T01:43:01;10.30;99.90
12276;DHT22;6200;48.144;11.424;2023-05-19T01:45:32;10.30;99.90
12276;DHT22;6200;48.144;11.424;2023-05-19T01:48:00;10.30;99.90
12276;DHT22;6200;48.144;11.424;2023-05-19T01:50:26;10.30;99.90
12276;DHT22;6200;48.144;11.424;2023-05-19T01:52:52;10.30;99.90
12276;DHT22;6200;48.144;11.424;2023-05-19T01:55:18;10.30;99.90
12276;DHT22;6200;48.144;11.424;2023-05-19T02:06:31;10.30;99.90
12276;DHT22;6200;48.144;11.424;2023-05-19T02:10:04;10.20;99.90
12276;DHT22;6200;48.144;11.424;2023-05-19T02:12:27;10.20;99.90
12276;DHT22;6200;48.144;11.424;2023-05-19T02:15:09;10.20;99.90
12276;DHT22;6200;48.144;11.424;2023-05-19T02:17:37;10.20;99.90
12276;DHT22;6200;48.144;11.424;2023-05-19T02:20:06;10.10;99.90
12276;DHT22;6200;48.144;11.424;2023-05-19T02:22:34;10.10;99.90
12276;DHT22;6200;48.144;11.424;2023-05-19T02:25:00;10.10;99.90
12276;DHT22;6200;48.144;11.424;2023-05-19T02:27:26;10.10;99.90
12276;DHT22;6200;48.144;11.424;2023-05-19T02:29:51;10.10;99.90
12276;DHT22;6200;48.144;11.424;2023-05-19T02:32:17;10.10;99.90
12276;DHT22;6200;48.144;11.424;2023-05-19T02:34:43;10.10;99.90
12276;DHT22;6200;48.144;11.424;2023-05-19T02:37:13;10.10;99.90
12276;DHT22;6200;48.144;11.424;2023-05-19T02:39:39;10.10;99.90
12276;DHT22;6200;48.144;11.424;2023-05-19T02:42:05;10.10;99.90
12276;DHT22;6200;48.144;11.424;2023-05-19T02:44:30;10.10;99.90
12276;DHT22;6200;48.144;11.424;2023-05-19T02:46:56;10.10;99.90
12276;DHT22;6200;48.144;11.424;2023-05-19T02:49:21;10.00;99.90
12276;DHT22;6200;48.144;11.424;2023-05-19T02:51:47;10.00;99.90
12276;DHT22;6200;48.144;11.424;2023-05-19T02:54:12;10.00;99.90
12276;DHT22;6200;48.144;11.424;2023-05-19T02:56:38;10.00;99.90
12276;DHT22;6200;48.144;11.424;2023-05-19T02:59:03;10.00;99.90
12276;DHT22;6200;48.144;11.424;2023-05-19T03:01:29;10.00;99.90
12276;DHT22;6200;48.144;11.424;2023-05-19T03:03:57;10.00;99.90
12276;DHT22;6200;48.144;11.424;2023-05-19T03:06:22;10.00;99.90
12276;DHT22;6200;48.144;11.424;2023-05-19T03:08:48;10.00;99.90
12276;DHT22;6200;48.144;11.424;2023-05-19T03:11:14;10.00;99.90
12276;DHT22;6200;48.144;11.424;2023-05-19T03:13:40;9.90;99.90
12276;DHT22;6200;48.144;11.424;2023-05-19T03:16:05;9.90;99.90
12276;DHT22;6200;48.144;11.424;2023-05-19T03:18:32;10.00;99.90
12276;DHT22;6200;48.144;11.424;2023-05-19T03:20:58;9.90;99.90
12276;DHT22;6200;48.144;11.424;2023-05-19T03:23:23;9.90;99.90
12276;DHT22;6200;48.144;11.424;2023-05-19T03:25:49;9.90;99.90
12276;DHT22;6200;48.144;11.424;2023-05-19T03:28:15;9.90;99.90
12276;DHT22;6200;48.144;11.424;2023-05-19T03:30:41;9.90;99.90
12276;DHT22;6200;48.144;11.424;2023-05-19T03:33:06;9.90;99.90
12276;DHT22;6200;48.144;11.424;2023-05-19T03:35:32;9.90;99.90
12276;DHT22;6200;48.144;11.424;2023-05-19T03:37:58;9.90;99.90
12276;DHT22;6200;48.144;11.424;2023-05-19T03:40:23;9.90;99.90
12276;DHT22;6200;48.144;11.424;2023-05-19T03:42:49;9.90;99.90
12276;DHT22;6200;48.144;11.424;2023-05-19T03:45:14;9.90;99.90
12276;DHT22;6200;48.144;11.424;2023-05-19T03:47:40;9.90;99.90
12276;DHT22;6200;48.144;11.424;2023-05-19T03:50:06;9.90;99.90
12276;DHT22;6200;48.144;11.424;2023-05-19T03:52:32;9.90;99.90
12276;DHT22;6200;48.144;11.424;2023-05-19T03:54:57;9.90;99.90
12276;DHT22;6200;48.144;11.424;2023-05-19T03:57:23;9.90;99.90
12276;DHT22;6200;48.144;11.424;2023-05-19T03:59:48;8.90;99.90
12276;DHT22;6200;48.144;11.424;2023-05-19T04:02:14;9.80;99.90
12276;DHT22;6200;48.144;11.424;2023-05-19T04:04:39;9.90;99.90
12276;DHT22;6200;48.144;11.424;2023-05-19T04:07:05;9.80;99.90
12276;DHT22;6200;48.144;11.424;2023-05-19T04:09:31;9.90;99.90
12276;DHT22;6200;48.144;11.424;2023-05-19T04:11:59;9.90;99.90
12276;DHT22;6200;48.144;11.424;2023-05-19T04:14:25;9.90;99.90
12276;DHT22;6200;48.144;11.424;2023-05-19T04:16:51;9.90;99.90
12276;DHT22;6200;48.144;11.424;2023-05-19T04:19:18;9.90;99.90
12276;DHT22;6200;48.144;11.424;2023-05-19T04:21:43;9.90;99.90
12276;DHT22;6200;48.144;11.424;2023-05-19T04:24:09;9.90;99.90
12276;DHT22;6200;48.144;11.424;2023-05-19T04:26:34;9.90;99.90
12276;DHT22;6200;48.144;11.424;2023-05-19T04:29:00;9.90;99.90
12276;DHT22;6200;48.144;11.424;2023-05-19T04:31:29;9.90;99.90
12276;DHT22;6200;48.144;11.424;2023-05-19T04:33:54;9.90;99.90
12276;DHT22;6200;48.144;11.424;2023-05-19T04:36:20;10.00;99.90
12276;DHT22;6200;48.144;11.424;2023-05-19T04:38:46;10.00;99.90
12276;DHT22;6200;48.144;11.424;2023-05-19T04:41:12;10.00;99.90
12276;DHT22;6200;48.144;11.424;2023-05-19T04:43:38;10.00;99.90
12276;DHT22;6200;48.144;11.424;2023-05-19T04:46:06;10.00;99.90
12276;DHT22;6200;48.144;11.424;2023-05-19T04:48:32;10.00;99.90
12276;DHT22;6200;48.144;11.424;2023-05-19T04:50:58;10.10;99.90
12276;DHT22;6200;48.144;11.424;2023-05-19T04:53:28;10.10;99.90
12276;DHT22;6200;48.144;11.424;2023-05-19T04:55:54;10.10;99.90
12276;DHT22;6200;48.144;11.424;2023-05-19T04:58:21;10.10;99.90
12276;DHT22;6200;48.144;11.424;2023-05-19T05:00:50;10.10;99.90
12276;DHT22;6200;48.144;11.424;2023-05-19T05:03:16;10.10;99.90
12276;DHT22;6200;48.144;11.424;2023-05-19T05:05:42;10.20;99.90
12276;DHT22;6200;48.144;11.424;2023-05-19T05:08:09;10.30;99.90
12276;DHT22;6200;48.144;11.424;2023-05-19T05:10:35;10.30;99.90
12276;DHT22;6200;48.144;11.424;2023-05-19T05:13:00;10.30;99.90
12276;DHT22;6200;48.144;11.424;2023-05-19T05:15:26;10.40;99.90
12276;DHT22;6200;48.144;11.424;2023-05-19T05:17:54;10.40;99.90
12276;DHT22;6200;48.144;11.424;2023-05-19T05:20:20;10.50;99.90
12276;DHT22;6200;48.144;11.424;2023-05-19T05:22:46;10.50;99.90
12276;DHT22;6200;48.144;11.424;2023-05-19T05:25:12;10.50;99.90
12276;DHT22;6200;48.144;11.424;2023-05-19T05:27:38;10.50;99.90
12276;DHT22;6200;48.144;11.424;2023-05-19T05:30:04;10.60;99.90
12276;DHT22;6200;48.144;11.424;2023-05-19T05:32:30;10.60;99.90
12276;DHT22;6200;48.144;11.424;2023-05-19T05:34:55;10.70;99.90
12276;DHT22;6200;48.144;11.424;2023-05-19T05:37:21;10.70;99.90
12276;DHT22;6200;48.144;11.424;2023-05-19T05:39:46;10.80;99.90
12276;DHT22;6200;48.144;11.424;2023-05-19T05:42:12;10.80;99.90
12276;DHT22;6200;48.144;11.424;2023-05-19T05:44:37;10.90;99.90
12276;DHT22;6200;48.144;11.424;2023-05-19T05:47:03;11.00;99.90
12276;DHT22;6200;48.144;11.424;2023-05-19T05:49:29;11.00;99.90
12276;DHT22;6200;48.144;11.424;2023-05-19T05:51:55;11.10;99.90
12276;DHT22;6200;48.144;11.424;2023-05-19T05:54:21;11.10;99.90
12276;DHT22;6200;48.144;11.424;2023-05-19T05:56:47;11.20;99.90
12276;DHT22;6200;48.144;11.424;2023-05-19T05:59:13;11.30;99.90
12276;DHT22;6200;48.144;11.424;2023-05-19T06:01:39;11.40;99.90
12276;DHT22;6200;48.144;11.424;2023-05-19T06:04:06;11.50;99.90
12276;DHT22;6200;48.144;11.424;2023-05-19T06:06:32;11.70;99.90
12276;DHT22;6200;48.144;11.424;2023-05-19T06:08:57;11.90;99.90
12276;DHT22;6200;48.144;11.424;2023-05-19T06:11:23;12.10;99.90
12276;DHT22;6200;48.144;11.424;2023-05-19T06:13:49;12.40;99.90
12276;DHT22;6200;48.144;11.424;2023-05-19T06:16:16;12.90;99.90
12276;DHT22;6200;48.144;11.424;2023-05-19T06:18:41;13.30;99.90
12276;DHT22;6200;48.144;11.424;2023-05-19T06:21:07;13.80;99.90
12276;DHT22;6200;48.144;11.424;2023-05-19T06:23:35;14.30;99.90
12276;DHT22;6200;48.144;11.424;2023-05-19T06:26:00;14.60;99.90
12276;DHT22;6200;48.144;11.424;2023-05-19T06:28:26;14.70;99.90
12276;DHT22;6200;48.144;11.424;2023-05-19T06:30:51;14.80;99.90
12276;DHT22;6200;48.144;11.424;2023-05-19T06:33:17;14.50;99.90
12276;DHT22;6200;48.144;11.424;2023-05-19T06:35:42;14.50;99.90
12276;DHT22;6200;48.144;11.424;2023-05-19T06:38:08;14.80;99.90
12276;DHT22;6200;48.144;11.424;2023-05-19T06:40:34;15.50;99.90
12276;DHT22;6200;48.144;11.424;2023-05-19T06:43:01;16.00;99.90
12276;DHT22;6200;48.144;11.424;2023-05-19T06:45:27;16.20;99.90
12276;DHT22;6200;48.144;11.424;2023-05-19T06:47:52;16.10;99.90
12276;DHT22;6200;48.144;11.424;2023-05-19T06:50:18;16.10;99.70
12276;DHT22;6200;48.144;11.424;2023-05-19T06:52:44;16.30;99.90
12276;DHT22;6200;48.144;11.424;2023-05-19T06:55:11;16.80;99.10
12276;DHT22;6200;48.144;11.424;2023-05-19T06:57:36;17.10;98.40
12276;DHT22;6200;48.144;11.424;2023-05-19T07:00:03;17.00;98.00
12276;DHT22;6200;48.144;11.424;2023-05-19T07:02:29;16.70;97.80
12276;DHT22;6200;48.144;11.424;2023-05-19T07:04:54;16.50;98.80
12276;DHT22;6200;48.144;11.424;2023-05-19T07:07:21;16.60;98.40
12276;DHT22;6200;48.144;11.424;2023-05-19T07:09:47;16.90;97.60
12276;DHT22;6200;48.144;11.424;2023-05-19T07:12:12;17.20;97.80
12276;DHT22;6200;48.144;11.424;2023-05-19T07:14:38;17.80;97.10
12276;DHT22;6200;48.144;11.424;2023-05-19T07:17:04;18.50;95.90
12276;DHT22;6200;48.144;11.424;2023-05-19T07:19:29;19.20;94.70
12276;DHT22;6200;48.144;11.424;2023-05-19T07:21:55;19.30;93.90
12276;DHT22;6200;48.144;11.424;2023-05-19T07:24:21;19.20;92.40
12276;DHT22;6200;48.144;11.424;2023-05-19T07:26:47;19.10;92.60
12276;DHT22;6200;48.144;11.424;2023-05-19T07:29:12;18.90;93.10
12276;DHT22;6200;48.144;11.424;2023-05-19T07:31:38;18.50;92.70
12276;DHT22;6200;48.144;11.424;2023-05-19T07:34:03;18.00;93.40
12276;DHT22;6200;48.144;11.424;2023-05-19T07:36:29;17.80;93.90
12276;DHT22;6200;48.144;11.424;2023-05-19T07:38:55;17.60;94.70
12276;DHT22;6200;48.144;11.424;2023-05-19T07:41:21;17.20;94.20
12276;DHT22;6200;48.144;11.424;2023-05-19T07:43:47;16.80;95.50
12276;DHT22;6200;48.144;11.424;2023-05-19T07:46:13;16.60;94.90
12276;DHT22;6200;48.144;11.424;2023-05-19T07:48:38;16.20;95.80
12276;DHT22;6200;48.144;11.424;2023-05-19T07:51:04;16.00;96.20
12276;DHT22;6200;48.144;11.424;2023-05-19T07:53:29;15.70;97.10
12276;DHT22;6200;48.144;11.424;2023-05-19T07:55:55;15.50;97.40
12276;DHT22;6200;48.144;11.424;2023-05-19T07:58:21;15.40;99.20
12276;DHT22;6200;48.144;11.424;2023-05-19T08:00:47;15.30;98.00
12276;DHT22;6200;48.144;11.424;2023-05-19T08:03:12;15.30;98.20
12276;DHT22;6200;48.144;11.424;2023-05-19T08:05:41;15.20;98.50
12276;DHT22;6200;48.144;11.424;2023-05-19T08:08:07;15.10;98.30
12276;DHT22;6200;48.144;11.424;2023-05-19T08:10:33;15.10;98.80
12276;DHT22;6200;48.144;11.424;2023-05-19T08:12:58;15.00;99.30
12276;DHT22;6200;48.144;11.424;2023-05-19T08:15:24;15.00;99.40
12276;DHT22;6200;48.144;11.424;2023-05-19T08:17:49;14.90;99.50
12276;DHT22;6200;48.144;11.424;2023-05-19T08:20:15;14.70;99.50
12276;DHT22;6200;48.144;11.424;2023-05-19T08:22:41;14.70;99.90
12276;DHT22;6200;48.144;11.424;2023-05-19T08:25:07;14.60;99.90
12276;DHT22;6200;48.144;11.424;2023-05-19T08:27:33;14.40;99.90
12276;DHT22;6200;48.144;11.424;2023-05-19T08:29:59;14.40;99.90
12276;DHT22;6200;48.144;11.424;2023-05-19T08:32:24;14.40;99.90
12276;DHT22;6200;48.144;11.424;2023-05-19T08:34:50;14.40;99.90
12276;DHT22;6200;48.144;11.424;2023-05-19T08:37:15;14.30;99.90
12276;DHT22;6200;48.144;11.424;2023-05-19T08:39:41;14.30;99.90
12276;DHT22;6200;48.144;11.424;2023-05-19T08:42:06;14.30;99.90
12276;DHT22;6200;48.144;11.424;2023-05-19T08:44:37;14.30;99.90
12276;DHT22;6200;48.144;11.424;2023-05-19T08:47:04;14.20;99.90
12276;DHT22;6200;48.144;11.424;2023-05-19T08:49:34;14.30;99.90
12276;DHT22;6200;48.144;11.424;2023-05-19T08:52:30;14.30;99.90
12276;DHT22;6200;48.144;11.424;2023-05-19T08:57:25;14.30;99.90
12276;DHT22;6200;48.144;11.424;2023-05-19T08:59:51;14.30;99.90
12276;DHT22;6200;48.144;11.424;2023-05-19T09:02:18;14.30;99.90
12276;DHT22;6200;48.144;11.424;2023-05-19T09:04:45;14.20;99.90
12276;DHT22;6200;48.144;11.424;2023-05-19T09:07:13;14.30;99.90
12276;DHT22;6200;48.144;11.424;2023-05-19T09:09:39;14.30;99.90
12276;DHT22;6200;48.144;11.424;2023-05-19T09:12:10;14.20;99.90
12276;DHT22;6200;48.144;11.424;2023-05-19T09:14:36;14.20;99.90
12276;DHT22;6200;48.144;11.424;2023-05-19T09:17:03;14.10;99.90
12276;DHT22;6200;48.144;11.424;2023-05-19T09:19:28;14.10;99.90
12276;DHT22;6200;48.144;11.424;2023-05-19T09:22:01;14.00;99.90
12276;DHT22;6200;48.144;11.424;2023-05-19T09:24:30;14.10;99.90
12276;DHT22;6200;48.144;11.424;2023-05-19T09:26:58;14.10;99.90
12276;DHT22;6200;48.144;11.424;2023-05-19T09:29:23;14.10;99.90
12276;DHT22;6200;48.144;11.424;2023-05-19T09:31:54;14.10;99.90
12276;DHT22;6200;48.144;11.424;2023-05-19T09:34:20;14.10;99.90
12276;DHT22;6200;48.144;11.424;2023-05-19T09:36:51;14.10;99.90
12276;DHT22;6200;48.144;11.424;2023-05-19T09:39:22;14.20;99.90
12276;DHT22;6200;48.144;11.424;2023-05-19T09:41:52;14.30;99.90
12276;DHT22;6200;48.144;11.424;2023-05-19T09:44:24;14.30;99.90
12276;DHT22;6200;48.144;11.424;2023-05-19T09:46:53;14.40;99.90
12276;DHT22;6200;48.144;11.424;2023-05-19T09:49:23;14.40;99.90
12276;DHT22;6200;48.144;11.424;2023-05-19T09:51:54;14.40;99.90
12276;DHT22;6200;48.144;11.424;2023-05-19T09:54:21;14.40;99.90
12276;DHT22;6200;48.144;11.424;2023-05-19T09:57:02;14.40;99.90
12276;DHT22;6200;48.144;11.424;2023-05-19T09:59:29;14.50;99.90
12276;DHT22;6200;48.144;11.424;2023-05-19T10:01:57;14.50;99.90
12276;DHT22;6200;48.144;11.424;2023-05-19T10:04:28;14.40;99.90
12276;DHT22;6200;48.144;11.424;2023-05-19T10:06:55;14.30;99.90
12276;DHT22;6200;48.144;11.424;2023-05-19T10:09:25;14.30;99.90
12276;DHT22;6200;48.144;11.424;2023-05-19T10:11:55;14.30;99.90
12276;DHT22;6200;48.144;11.424;2023-05-19T10:14:26;14.30;99.90
12276;DHT22;6200;48.144;11.424;2023-05-19T10:16:52;14.20;99.90
12276;DHT22;6200;48.144;11.424;2023-05-19T10:19:23;14.20;99.90
12276;DHT22;6200;48.144;11.424;2023-05-19T10:21:49;14.30;99.90
12276;DHT22;6200;48.144;11.424;2023-05-19T10:24:15;14.20;99.90
12276;DHT22;6200;48.144;11.424;2023-05-19T10:26:44;14.20;99.90
12276;DHT22;6200;48.144;11.424;2023-05-19T10:29:11;15.40;99.90
12276;DHT22;6200;48.144;11.424;2023-05-19T10:31:38;14.20;99.90
12276;DHT22;6200;48.144;11.424;2023-05-19T10:37:08;14.20;99.90
12276;DHT22;6200;48.144;11.424;2023-05-19T10:39:41;14.20;99.90
12276;DHT22;6200;48.144;11.424;2023-05-19T10:42:14;14.10;99.90
12276;DHT22;6200;48.144;11.424;2023-05-19T10:44:52;14.10;99.90
12276;DHT22;6200;48.144;11.424;2023-05-19T10:47:25;14.10;99.90
12276;DHT22;6200;48.144;11.424;2023-05-19T10:49:55;14.10;99.90
12276;DHT22;6200;48.144;11.424;2023-05-19T10:52:22;14.00;99.90
12276;DHT22;6200;48.144;11.424;2023-05-19T10:54:50;14.10;99.90
12276;DHT22;6200;48.144;11.424;2023-05-19T10:57:25;14.00;99.90
12276;DHT22;6200;48.144;11.424;2023-05-19T10:59:57;14.00;99.90
12276;DHT22;6200;48.144;11.424;2023-05-19T11:02:42;14.00;99.90
12276;DHT22;6200;48.144;11.424;2023-05-19T11:05:12;14.10;99.90
12276;DHT22;6200;48.144;11.424;2023-05-19T11:07:43;14.10;99.90
12276;DHT22;6200;48.144;11.424;2023-05-19T11:10:09;14.10;99.90
12276;DHT22;6200;48.144;11.424;2023-05-19T11:12:43;14.10;99.90
12276;DHT22;6200;48.144;11.424;2023-05-19T11:15:13;14.10;99.90
12276;DHT22;6200;48.144;11.424;2023-05-19T11:17:40;14.00;99.90
12276;DHT22;6200;48.144;11.424;2023-05-19T11:20:22;14.10;99.90
12276;DHT22;6200;48.144;11.424;2023-05-19T11:25:46;14.20;99.90
12276;DHT22;6200;48.144;11.424;2023-05-19T11:28:16;14.20;99.90
12276;DHT22;6200;48.144;11.424;2023-05-19T11:30:45;14.20;99.90
12276;DHT22;6200;48.144;11.424;2023-05-19T11:33:11;14.20;99.90
12276;DHT22;6200;48.144;11.424;2023-05-19T11:35:38;14.20;99.90
12276;DHT22;6200;48.144;11.424;2023-05-19T11:38:05;14.10;99.90
12276;DHT22;6200;48.144;11.424;2023-05-19T11:40:31;14.10;99.90
12276;DHT22;6200;48.144;11.424;2023-05-19T11:42:57;14.20;99.90
12276;DHT22;6200;48.144;11.424;2023-05-19T11:45:27;14.20;99.90
12276;DHT22;6200;48.144;11.424;2023-05-19T11:47:54;14.20;99.90
12276;DHT22;6200;48.144;11.424;2023-05-19T11:50:21;14.30;99.90
12276;DHT22;6200;48.144;11.424;2023-05-19T11:52:46;14.30;99.90
12276;DHT22;6200;48.144;11.424;2023-05-19T11:55:18;14.30;99.90
12276;DHT22;6200;48.144;11.424;2023-05-19T11:58:01;14.30;99.90
12276;DHT22;6200;48.144;11.424;2023-05-19T12:00:28;14.30;99.90
12276;DHT22;6200;48.144;11.424;2023-05-19T12:02:55;14.20;99.90
12276;DHT22;6200;48.144;11.424;2023-05-19T12:05:23;14.20;99.90
12276;DHT22;6200;48.144;11.424;2023-05-19T12:07:49;14.10;99.90
12276;DHT22;6200;48.144;11.424;2023-05-19T12:10:30;14.10;99.90
12276;DHT22;6200;48.144;11.424;2023-05-19T12:12:56;14.10;99.90
12276;DHT22;6200;48.144;11.424;2023-05-19T12:15:23;14.10;99.90
12276;DHT22;6200;48.144;11.424;2023-05-19T12:17:57;14.10;99.90
12276;DHT22;6200;48.144;11.424;2023-05-19T12:20:23;14.10;99.90
12276;DHT22;6200;48.144;11.424;2023-05-19T12:22:50;14.10;99.90
12276;DHT22;6200;48.144;11.424;2023-05-19T12:25:16;14.10;99.90
12276;DHT22;6200;48.144;11.424;2023-05-19T12:27:42;14.20;99.90
12276;DHT22;6200;48.144;11.424;2023-05-19T12:30:08;14.20;99.90
12276;DHT22;6200;48.144;11.424;2023-05-19T12:32:34;14.20;99.90
12276;DHT22;6200;48.144;11.424;2023-05-19T12:35:02;14.20;99.90
12276;DHT22;6200;48.144;11.424;2023-05-19T12:37:29;14.20;99.90
12276;DHT22;6200;48.144;11.424;2023-05-19T12:39:55;14.20;99.90
12276;DHT22;6200;48.144;11.424;2023-05-19T12:42:22;14.30;99.90
12276;DHT22;6200;48.144;11.424;2023-05-19T12:44:49;14.30;99.90
12276;DHT22;6200;48.144;11.424;2023-05-19T12:47:17;14.30;99.90
12276;DHT22;6200;48.144;11.424;2023-05-19T12:50:13;14.30;99.90
12276;DHT22;6200;48.144;11.424;2023-05-19T12:52:48;14.50;99.90
12276;DHT22;6200;48.144;11.424;2023-05-19T12:55:17;14.50;99.90
12276;DHT22;6200;48.144;11.424;2023-05-19T12:57:48;14.60;99.90
12276;DHT22;6200;48.144;11.424;2023-05-19T13:00:16;14.60;99.90
12276;DHT22;6200;48.144;11.424;2023-05-19T13:03:03;14.50;99.90
12276;DHT22;6200;48.144;11.424;2023-05-19T13:05:36;14.50;99.90
12276;DHT22;6200;48.144;11.424;2023-05-19T13:08:07;14.50;99.90
12276;DHT22;6200;48.144;11.424;2023-05-19T13:10:33;14.60;99.90
12276;DHT22;6200;48.144;11.424;2023-05-19T13:12:59;14.60;99.90
12276;DHT22;6200;48.144;11.424;2023-05-19T13:15:27;14.60;99.90
12276;DHT22;6200;48.144;11.424;2023-05-19T13:17:54;14.70;99.90
12276;DHT22;6200;48.144;11.424;2023-05-19T13:20:20;14.80;99.90
12276;DHT22;6200;48.144;11.424;2023-05-19T13:22:46;14.80;99.90
12276;DHT22;6200;48.144;11.424;2023-05-19T13:25:12;14.90;99.90
12276;DHT22;6200;48.144;11.424;2023-05-19T13:27:38;15.10;99.90
12276;DHT22;6200;48.144;11.424;2023-05-19T13:30:04;15.40;99.90
12276;DHT22;6200;48.144;11.424;2023-05-19T13:32:30;15.70;99.90
12276;DHT22;6200;48.144;11.424;2023-05-19T13:34:56;16.10;99.80
12276;DHT22;6200;48.144;11.424;2023-05-19T13:37:22;16.40;99.90
12276;DHT22;6200;48.144;11.424;2023-05-19T13:39:47;16.70;98.20
12276;DHT22;6200;48.144;11.424;2023-05-19T13:42:13;16.60;98.90
12276;DHT22;6200;48.144;11.424;2023-05-19T13:44:38;16.70;99.50
12276;DHT22;6200;48.144;11.424;2023-05-19T13:47:04;16.80;98.50
12276;DHT22;6200;48.144;11.424;2023-05-19T13:49:29;16.80;98.70
12276;DHT22;6200;48.144;11.424;2023-05-19T13:51:56;16.90;97.80
12276;DHT22;6200;48.144;11.424;2023-05-19T13:54:22;16.90;98.00
12276;DHT22;6200;48.144;11.424;2023-05-19T13:56:48;16.70;98.10
12276;DHT22;6200;48.144;11.424;2023-05-19T13:59:14;16.70;98.30
12276;DHT22;6200;48.144;11.424;2023-05-19T14:01:42;16.70;98.20
12276;DHT22;6200;48.144;11.424;2023-05-19T14:04:08;16.70;98.70
12276;DHT22;6200;48.144;11.424;2023-05-19T14:06:34;16.60;99.30
12276;DHT22;6200;48.144;11.424;2023-05-19T14:09:01;16.60;98.70
12276;DHT22;6200;48.144;11.424;2023-05-19T14:11:26;16.60;98.50
12276;DHT22;6200;48.144;11.424;2023-05-19T14:13:52;16.70;97.80
12276;DHT22;6200;48.144;11.424;2023-05-19T14:16:17;16.70;98.00
12276;DHT22;6200;48.144;11.424;2023-05-19T14:18:44;16.70;98.20
12276;DHT22;6200;48.144;11.424;2023-05-19T14:21:09;16.70;98.90
12276;DHT22;6200;48.144;11.424;2023-05-19T14:23:35;16.60;98.20
12276;DHT22;6200;48.144;11.424;2023-05-19T14:26:00;16.60;99.00
12276;DHT22;6200;48.144;11.424;2023-05-19T14:28:26;16.50;98.70
12276;DHT22;6200;48.144;11.424;2023-05-19T14:30:52;16.50;99.50
12276;DHT22;6200;48.144;11.424;2023-05-19T14:33:17;16.50;99.90
12276;DHT22;6200;48.144;11.424;2023-05-19T14:35:44;16.40;98.80
12276;DHT22;6200;48.144;11.424;2023-05-19T14:38:09;16.40;99.30
12276;DHT22;6200;48.144;11.424;2023-05-19T14:40:36;16.40;99.70
12276;DHT22;6200;48.144;11.424;2023-05-19T14:43:02;16.40;99.90
12276;DHT22;6200;48.144;11.424;2023-05-19T14:45:27;16.40;99.70
12276;DHT22;6200;48.144;11.424;2023-05-19T14:47:53;16.30;99.50
12276;DHT22;6200;48.144;11.424;2023-05-19T14:50:19;16.30;99.90
12276;DHT22;6200;48.144;11.424;2023-05-19T14:52:44;16.30;99.70
12276;DHT22;6200;48.144;11.424;2023-05-19T14:55:10;16.30;99.40
12276;DHT22;6200;48.144;11.424;2023-05-19T14:57:35;16.30;99.60
12276;DHT22;6200;48.144;11.424;2023-05-19T15:00:01;16.40;99.90
12276;DHT22;6200;48.144;11.424;2023-05-19T15:02:26;16.40;99.80
12276;DHT22;6200;48.144;11.424;2023-05-19T15:04:52;16.40;99.90
12276;DHT22;6200;48.144;11.424;2023-05-19T15:07:18;16.30;99.90
12276;DHT22;6200;48.144;11.424;2023-05-19T15:09:43;16.30;99.90
12276;DHT22;6200;48.144;11.424;2023-05-19T15:12:09;16.20;99.90
12276;DHT22;6200;48.144;11.424;2023-05-19T15:14:34;16.20;99.90
12276;DHT22;6200;48.144;11.424;2023-05-19T15:17:00;16.20;99.90
12276;DHT22;6200;48.144;11.424;2023-05-19T15:19:25;16.20;99.90
12276;DHT22;6200;48.144;11.424;2023-05-19T15:21:51;16.20;99.90
12276;DHT22;6200;48.144;11.424;2023-05-19T15:24:16;16.20;99.90
12276;DHT22;6200;48.144;11.424;2023-05-19T15:26:42;16.10;99.90
12276;DHT22;6200;48.144;11.424;2023-05-19T15:29:08;16.10;99.90
12276;DHT22;6200;48.144;11.424;2023-05-19T15:31:33;16.00;99.90
12276;DHT22;6200;48.144;11.424;2023-05-19T15:33:59;16.00;99.90
12276;DHT22;6200;48.144;11.424;2023-05-19T15:36:24;16.00;99.90
12276;DHT22;6200;48.144;11.424;2023-05-19T15:38:50;15.90;99.90
12276;DHT22;6200;48.144;11.424;2023-05-19T15:41:15;15.90;99.90
12276;DHT22;6200;48.144;11.424;2023-05-19T15:43:41;15.80;99.90
12276;DHT22;6200;48.144;11.424;2023-05-19T15:46:06;15.80;99.90
12276;DHT22;6200;48.144;11.424;2023-05-19T15:48:32;15.80;99.90
12276;DHT22;6200;48.144;11.424;2023-05-19T15:50:58;15.80;99.90
12276;DHT22;6200;48.144;11.424;2023-05-19T15:53:24;15.90;99.90
12276;DHT22;6200;48.144;11.424;2023-05-19T15:55:50;16.00;99.90
12276;DHT22;6200;48.144;11.424;2023-05-19T15:58:15;16.10;99.90